sensor_id;sensor_type;location;lat;lon;timestamp;pressure;altitude;pressure_sealevel;temperature;humidity
58018;BME280;43810;50.860;19.226;2023-06-01T00:00:37;98791.19;;;11.20;72.64
58018;BME280;43810;50.860;19.226;2023-06-01T00:03:25;98791.69;;;11.13;73.34
58018;BME280;43810;50.860;19.226;2023-06-01T00:05:52;98793.34;;;11.17;73.70
58018;BME280;43810;50.860;19.226;2023-06-01T00:08:17;98799.59;;;11.22;73.72
58018;BME280;43810;50.860;19.226;2023-06-01T00:10:43;98797.41;;;11.24;73.41
58018;BME280;43810;50.860;19.226;2023-06-01T00:13:09;98792.53;;;11.26;73.09
58018;BME280;43810;50.860;19.226;2023-06-01T00:15:35;98796.09;;;11.30;72.63
58018;BME280;43810;50.860;19.226;2023-06-01T00:18:01;98779.34;;;11.29;72.88
58018;BME280;43810;50.860;19.226;2023-06-01T00:20:27;98781.03;;;11.34;72.76
58018;BME280;43810;50.860;19.226;2023-06-01T00:22:54;98784.47;;;11.34;72.97
58018;BME280;43810;50.860;19.226;2023-06-01T00:25:21;98783.25;;;11.32;73.24
58018;BME280;43810;50.860;19.226;2023-06-01T00:27:47;98788.31;;;11.25;73.68
58018;BME280;43810;50.860;19.226;2023-06-01T00:30:13;98781.63;;;11.19;73.70
58018;BME280;43810;50.860;19.226;2023-06-01T00:32:39;98777.28;;;11.14;73.93
58018;BME280;43810;50.860;19.226;2023-06-01T00:35:05;98774.94;;;11.12;74.02
58018;BME280;43810;50.860;19.226;2023-06-01T00:37:31;98777.16;;;11.10;73.96
58018;BME280;43810;50.860;19.226;2023-06-01T00:39:57;98772.47;;;11.07;73.89
58018;BME280;43810;50.860;19.226;2023-06-01T00:42:22;98779.03;;;11.10;73.61
58018;BME280;43810;50.860;19.226;2023-06-01T00:44:48;98777.47;;;11.09;73.47
58018;BME280;43810;50.860;19.226;2023-06-01T00:47:15;98770.16;;;11.06;73.55
58018;BME280;43810;50.860;19.226;2023-06-01T00:49:41;98774.13;;;11.00;73.80
58018;BME280;43810;50.860;19.226;2023-06-01T00:52:07;98772.69;;;11.02;73.79
58018;BME280;43810;50.860;19.226;2023-06-01T00:54:33;98770.03;;;11.02;73.64
58018;BME280;43810;50.860;19.226;2023-06-01T00:56:59;98768.66;;;10.96;73.31
58018;BME280;43810;50.860;19.226;2023-06-01T00:59:26;98769.75;;;10.95;73.29
58018;BME280;43810;50.860;19.226;2023-06-01T01:01:51;98762.00;;;10.90;73.28
58018;BME280;43810;50.860;19.226;2023-06-01T01:04:18;98765.88;;;10.93;72.93
58018;BME280;43810;50.860;19.226;2023-06-01T01:07:13;98762.50;;;10.84;72.91
58018;BME280;43810;50.860;19.226;2023-06-01T01:09:55;98760.22;;;10.94;72.36
58018;BME280;43810;50.860;19.226;2023-06-01T01:12:33;98756.78;;;10.94;72.22
58018;BME280;43810;50.860;19.226;2023-06-01T01:15:29;98764.00;;;10.93;72.29
58018;BME280;43810;50.860;19.226;2023-06-01T01:18:15;98760.56;;;10.93;72.06
58018;BME280;43810;50.860;19.226;2023-06-01T01:20:52;98765.09;;;10.92;72.19
58018;BME280;43810;50.860;19.226;2023-06-01T01:29:00;98760.00;;;10.87;71.85
58018;BME280;43810;50.860;19.226;2023-06-01T01:31:27;98755.44;;;10.88;71.83
58018;BME280;43810;50.860;19.226;2023-06-01T01:33:56;98757.50;;;10.82;71.75
58018;BME280;43810;50.860;19.226;2023-06-01T01:36:24;98748.66;;;10.78;71.99
58018;BME280;43810;50.860;19.226;2023-06-01T01:38:50;98751.41;;;10.81;71.79
58018;BME280;43810;50.860;19.226;2023-06-01T01:41:16;98744.16;;;10.70;72.07
58018;BME280;43810;50.860;19.226;2023-06-01T01:43:42;98740.63;;;10.66;72.32
58018;BME280;43810;50.860;19.226;2023-06-01T01:46:26;98745.94;;;10.66;72.55
58018;BME280;43810;50.860;19.226;2023-06-01T01:52:01;98741.13;;;10.59;72.87
58018;BME280;43810;50.860;19.226;2023-06-01T01:54:34;98743.13;;;10.62;72.70
58018;BME280;43810;50.860;19.226;2023-06-01T01:57:03;98745.53;;;10.55;73.22
58018;BME280;43810;50.860;19.226;2023-06-01T01:59:30;98737.25;;;10.57;73.30
58018;BME280;43810;50.860;19.226;2023-06-01T02:01:58;98736.91;;;10.58;73.17
58018;BME280;43810;50.860;19.226;2023-06-01T02:04:24;98738.78;;;10.58;72.96
58018;BME280;43810;50.860;19.226;2023-06-01T02:06:50;98738.03;;;10.57;73.02
58018;BME280;43810;50.860;19.226;2023-06-01T02:09:16;98737.13;;;10.53;73.27
58018;BME280;43810;50.860;19.226;2023-06-01T02:11:42;98730.38;;;10.56;73.26
58018;BME280;43810;50.860;19.226;2023-06-01T02:14:09;98730.50;;;10.59;73.27
58018;BME280;43810;50.860;19.226;2023-06-01T02:16:35;98729.59;;;10.55;73.51
58018;BME280;43810;50.860;19.226;2023-06-01T02:19:01;98729.00;;;10.50;73.61
58018;BME280;43810;50.860;19.226;2023-06-01T02:21:28;98729.16;;;10.53;73.63
58018;BME280;43810;50.860;19.226;2023-06-01T02:23:54;98731.47;;;10.55;73.48
58018;BME280;43810;50.860;19.226;2023-06-01T02:26:20;98728.38;;;10.53;73.64
58018;BME280;43810;50.860;19.226;2023-06-01T02:28:46;98736.19;;;10.49;73.92
58018;BME280;43810;50.860;19.226;2023-06-01T02:31:13;98734.94;;;10.47;73.44
58018;BME280;43810;50.860;19.226;2023-06-01T02:33:42;98731.72;;;10.41;73.07
58018;BME280;43810;50.860;19.226;2023-06-01T02:36:08;98726.97;;;10.47;72.77
58018;BME280;43810;50.860;19.226;2023-06-01T02:38:33;98731.88;;;10.44;72.68
58018;BME280;43810;50.860;19.226;2023-06-01T02:40:59;98730.63;;;10.42;72.80
58018;BME280;43810;50.860;19.226;2023-06-01T02:43:25;98731.50;;;10.46;72.42
58018;BME280;43810;50.860;19.226;2023-06-01T02:45:51;98733.84;;;10.48;72.46
58018;BME280;43810;50.860;19.226;2023-06-01T02:48:16;98726.81;;;10.52;72.07
58018;BME280;43810;50.860;19.226;2023-06-01T02:50:43;98720.06;;;10.54;71.98
58018;BME280;43810;50.860;19.226;2023-06-01T02:53:09;98722.19;;;10.61;71.92
58018;BME280;43810;50.860;19.226;2023-06-01T02:55:35;98721.94;;;10.54;71.93
58018;BME280;43810;50.860;19.226;2023-06-01T02:58:00;98720.19;;;10.58;71.76
58018;BME280;43810;50.860;19.226;2023-06-01T03:00:26;98716.78;;;10.57;71.72
58018;BME280;43810;50.860;19.226;2023-06-01T03:02:52;98723.06;;;10.53;71.98
58018;BME280;43810;50.860;19.226;2023-06-01T03:05:18;98725.50;;;10.58;72.03
58018;BME280;43810;50.860;19.226;2023-06-01T03:07:47;98720.19;;;10.58;72.09
58018;BME280;43810;50.860;19.226;2023-06-01T03:10:13;98714.81;;;10.66;71.66
58018;BME280;43810;50.860;19.226;2023-06-01T03:12:39;98719.28;;;10.74;71.20
58018;BME280;43810;50.860;19.226;2023-06-01T03:15:05;98724.75;;;10.78;70.68
58018;BME280;43810;50.860;19.226;2023-06-01T03:17:32;98725.31;;;10.84;70.46
58018;BME280;43810;50.860;19.226;2023-06-01T03:19:59;98720.69;;;10.93;70.33
58018;BME280;43810;50.860;19.226;2023-06-01T03:22:25;98719.59;;;10.94;70.30
58018;BME280;43810;50.860;19.226;2023-06-01T03:24:52;98727.03;;;11.00;70.17
58018;BME280;43810;50.860;19.226;2023-06-01T03:27:20;98722.41;;;11.09;69.92
58018;BME280;43810;50.860;19.226;2023-06-01T03:29:46;98715.34;;;11.13;69.33
58018;BME280;43810;50.860;19.226;2023-06-01T03:32:13;98713.91;;;11.16;69.14
58018;BME280;43810;50.860;19.226;2023-06-01T03:34:39;98714.06;;;11.20;69.16
58018;BME280;43810;50.860;19.226;2023-06-01T03:37:06;98715.47;;;11.17;69.79
58018;BME280;43810;50.860;19.226;2023-06-01T03:39:34;98707.44;;;11.26;69.63
58018;BME280;43810;50.860;19.226;2023-06-01T03:42:01;98703.03;;;11.42;68.71
58018;BME280;43810;50.860;19.226;2023-06-01T03:44:27;98704.72;;;11.59;67.70
58018;BME280;43810;50.860;19.226;2023-06-01T03:46:52;98695.88;;;11.79;67.77
58018;BME280;43810;50.860;19.226;2023-06-01T03:49:18;98694.75;;;12.16;66.18
58018;BME280;43810;50.860;19.226;2023-06-01T03:51:44;98688.13;;;12.50;65.57
58018;BME280;43810;50.860;19.226;2023-06-01T03:54:11;98688.16;;;12.78;64.14
58018;BME280;43810;50.860;19.226;2023-06-01T03:56:36;98690.28;;;13.01;63.68
58018;BME280;43810;50.860;19.226;2023-06-01T03:59:03;98689.91;;;13.30;62.47
58018;BME280;43810;50.860;19.226;2023-06-01T04:01:28;98683.97;;;13.52;61.84
58018;BME280;43810;50.860;19.226;2023-06-01T04:03:58;98678.81;;;13.91;61.06
58018;BME280;43810;50.860;19.226;2023-06-01T04:06:24;98689.34;;;14.19;59.92
58018;BME280;43810;50.860;19.226;2023-06-01T04:08:50;98677.72;;;14.46;58.65
58018;BME280;43810;50.860;19.226;2023-06-01T04:11:23;98681.81;;;14.78;58.30
58018;BME280;43810;50.860;19.226;2023-06-01T04:13:50;98685.47;;;14.90;57.23
58018;BME280;43810;50.860;19.226;2023-06-01T04:16:16;98688.06;;;15.05;57.78
58018;BME280;43810;50.860;19.226;2023-06-01T04:18:42;98685.47;;;15.32;57.15
58018;BME280;43810;50.860;19.226;2023-06-01T04:21:07;98686.56;;;15.50;55.71
58018;BME280;43810;50.860;19.226;2023-06-01T04:23:35;98679.06;;;15.59;55.96
58018;BME280;43810;50.860;19.226;2023-06-01T04:26:02;98678.63;;;15.80;56.13
58018;BME280;43810;50.860;19.226;2023-06-01T04:28:31;98680.41;;;15.95;56.06
58018;BME280;43810;50.860;19.226;2023-06-01T04:30:58;98673.00;;;16.15;56.41
58018;BME280;43810;50.860;19.226;2023-06-01T04:33:25;98674.81;;;16.34;54.90
58018;BME280;43810;50.860;19.226;2023-06-01T04:35:51;98668.69;;;16.37;54.54
58018;BME280;43810;50.860;19.226;2023-06-01T04:38:20;98673.47;;;16.50;55.06
58018;BME280;43810;50.860;19.226;2023-06-01T04:40:46;98669.88;;;16.66;53.75
58018;BME280;43810;50.860;19.226;2023-06-01T04:43:13;98681.44;;;16.73;53.12
58018;BME280;43810;50.860;19.226;2023-06-01T04:45:45;98676.19;;;16.80;54.66
58018;BME280;43810;50.860;19.226;2023-06-01T04:48:11;98666.72;;;16.93;53.70
58018;BME280;43810;50.860;19.226;2023-06-01T04:50:37;98680.91;;;16.94;55.20
58018;BME280;43810;50.860;19.226;2023-06-01T04:53:04;98681.50;;;17.14;54.99
58018;BME280;43810;50.860;19.226;2023-06-01T04:55:29;98675.53;;;17.31;53.67
58018;BME280;43810;50.860;19.226;2023-06-01T04:57:57;98679.72;;;17.28;53.32
58018;BME280;43810;50.860;19.226;2023-06-01T05:00:23;98680.22;;;17.38;54.86
58018;BME280;43810;50.860;19.226;2023-06-01T05:02:49;98678.00;;;17.50;54.88
58018;BME280;43810;50.860;19.226;2023-06-01T05:05:16;98674.44;;;17.80;52.88
58018;BME280;43810;50.860;19.226;2023-06-01T05:07:42;98673.34;;;17.91;53.63
58018;BME280;43810;50.860;19.226;2023-06-01T05:10:11;98674.25;;;18.13;54.18
58018;BME280;43810;50.860;19.226;2023-06-01T05:12:37;98665.59;;;18.41;51.88
58018;BME280;43810;50.860;19.226;2023-06-01T05:15:05;98674.88;;;18.61;52.14
58018;BME280;43810;50.860;19.226;2023-06-01T05:17:32;98673.06;;;18.76;51.23
58018;BME280;43810;50.860;19.226;2023-06-01T05:19:58;98656.91;;;18.80;50.87
58018;BME280;43810;50.860;19.226;2023-06-01T05:22:24;98669.63;;;18.90;51.67
58018;BME280;43810;50.860;19.226;2023-06-01T05:24:50;98656.97;;;19.04;52.38
58018;BME280;43810;50.860;19.226;2023-06-01T05:27:16;98661.63;;;19.22;50.76
58018;BME280;43810;50.860;19.226;2023-06-01T05:29:42;98666.25;;;19.42;49.43
58018;BME280;43810;50.860;19.226;2023-06-01T05:32:09;98661.28;;;19.66;50.80
58018;BME280;43810;50.860;19.226;2023-06-01T05:34:35;98662.41;;;19.86;49.76
58018;BME280;43810;50.860;19.226;2023-06-01T05:37:01;98664.28;;;20.10;50.24
58018;BME280;43810;50.860;19.226;2023-06-01T05:39:30;98662.72;;;20.24;48.12
58018;BME280;43810;50.860;19.226;2023-06-01T05:41:57;98661.56;;;20.25;49.38
58018;BME280;43810;50.860;19.226;2023-06-01T05:44:26;98654.94;;;20.40;49.39
58018;BME280;43810;50.860;19.226;2023-06-01T05:46:51;98645.25;;;20.67;48.49
58018;BME280;43810;50.860;19.226;2023-06-01T05:49:18;98639.78;;;20.81;50.38
58018;BME280;43810;50.860;19.226;2023-06-01T05:51:44;98647.66;;;21.13;47.80
58018;BME280;43810;50.860;19.226;2023-06-01T05:54:12;98640.31;;;21.17;46.96
58018;BME280;43810;50.860;19.226;2023-06-01T05:56:38;98649.88;;;21.29;48.49
58018;BME280;43810;50.860;19.226;2023-06-01T05:59:06;98653.72;;;21.35;48.66
58018;BME280;43810;50.860;19.226;2023-06-01T06:01:32;98642.72;;;21.60;47.07
58018;BME280;43810;50.860;19.226;2023-06-01T06:03:58;98636.84;;;21.69;47.17
58018;BME280;43810;50.860;19.226;2023-06-01T06:06:25;98644.06;;;21.79;45.88
58018;BME280;43810;50.860;19.226;2023-06-01T06:08:51;98643.66;;;21.84;47.32
58018;BME280;43810;50.860;19.226;2023-06-01T06:11:18;98642.28;;;22.03;47.40
58018;BME280;43810;50.860;19.226;2023-06-01T06:13:44;98638.56;;;22.30;45.98
58018;BME280;43810;50.860;19.226;2023-06-01T06:16:10;98643.03;;;22.44;47.21
58018;BME280;43810;50.860;19.226;2023-06-01T06:18:36;98645.88;;;22.64;46.30
58018;BME280;43810;50.860;19.226;2023-06-01T06:21:02;98651.81;;;22.82;45.57
58018;BME280;43810;50.860;19.226;2023-06-01T06:23:27;98644.19;;;23.04;45.51
58018;BME280;43810;50.860;19.226;2023-06-01T06:25:55;98649.13;;;23.13;44.88
58018;BME280;43810;50.860;19.226;2023-06-01T06:28:21;98644.72;;;23.46;45.46
58018;BME280;43810;50.860;19.226;2023-06-01T06:30:47;98641.63;;;23.47;44.41
58018;BME280;43810;50.860;19.226;2023-06-01T06:33:13;98649.56;;;23.34;42.42
58018;BME280;43810;50.860;19.226;2023-06-01T06:35:39;98636.41;;;23.33;44.48
58018;BME280;43810;50.860;19.226;2023-06-01T06:38:06;98640.41;;;23.25;44.59
58018;BME280;43810;50.860;19.226;2023-06-01T06:40:32;98640.16;;;23.39;45.04
58018;BME280;43810;50.860;19.226;2023-06-01T06:42:58;98636.38;;;23.60;42.50
58018;BME280;43810;50.860;19.226;2023-06-01T06:45:24;98642.97;;;23.82;43.14
58018;BME280;43810;50.860;19.226;2023-06-01T06:47:50;98641.03;;;23.59;43.10
58018;BME280;43810;50.860;19.226;2023-06-01T06:50:16;98638.31;;;23.59;43.98
58018;BME280;43810;50.860;19.226;2023-06-01T06:52:42;98632.88;;;23.59;42.85
58018;BME280;43810;50.860;19.226;2023-06-01T06:55:08;98633.59;;;23.87;42.97
58018;BME280;43810;50.860;19.226;2023-06-01T06:57:34;98638.34;;;24.02;44.17
58018;BME280;43810;50.860;19.226;2023-06-01T07:00:01;98632.56;;;24.20;40.38
58018;BME280;43810;50.860;19.226;2023-06-01T07:02:29;98631.06;;;24.59;40.48
58018;BME280;43810;50.860;19.226;2023-06-01T07:04:55;98624.78;;;24.62;40.00
58018;BME280;43810;50.860;19.226;2023-06-01T07:07:21;98627.75;;;24.67;39.82
58018;BME280;43810;50.860;19.226;2023-06-01T07:09:47;98633.66;;;24.82;43.12
58018;BME280;43810;50.860;19.226;2023-06-01T07:12:12;98620.09;;;24.98;39.91
58018;BME280;43810;50.860;19.226;2023-06-01T07:14:38;98625.28;;;24.93;38.18
58018;BME280;43810;50.860;19.226;2023-06-01T07:17:04;98622.53;;;24.76;39.45
58018;BME280;43810;50.860;19.226;2023-06-01T07:19:31;98620.78;;;24.46;39.92
58018;BME280;43810;50.860;19.226;2023-06-01T07:22:01;98619.44;;;24.19;40.67
58018;BME280;43810;50.860;19.226;2023-06-01T07:24:27;98622.00;;;24.06;40.16
58018;BME280;43810;50.860;19.226;2023-06-01T07:26:54;98613.72;;;23.93;39.91
58018;BME280;43810;50.860;19.226;2023-06-01T07:29:21;98623.31;;;23.74;40.81
58018;BME280;43810;50.860;19.226;2023-06-01T07:31:50;98615.16;;;23.98;40.46
58018;BME280;43810;50.860;19.226;2023-06-01T07:34:16;98608.19;;;23.97;39.08
58018;BME280;43810;50.860;19.226;2023-06-01T07:36:41;98605.88;;;23.75;39.52
58018;BME280;43810;50.860;19.226;2023-06-01T07:39:07;98608.75;;;23.88;42.57
58018;BME280;43810;50.860;19.226;2023-06-01T07:41:34;98607.50;;;24.32;41.05
58018;BME280;43810;50.860;19.226;2023-06-01T07:44:00;98601.97;;;24.75;38.45
58018;BME280;43810;50.860;19.226;2023-06-01T07:46:26;98598.00;;;24.80;37.83
58018;BME280;43810;50.860;19.226;2023-06-01T07:48:52;98607.13;;;24.70;39.90
58018;BME280;43810;50.860;19.226;2023-06-01T07:51:18;98602.50;;;24.87;38.20
58018;BME280;43810;50.860;19.226;2023-06-01T07:53:44;98602.63;;;24.99;37.98
58018;BME280;43810;50.860;19.226;2023-06-01T07:56:09;98600.41;;;25.10;37.20
58018;BME280;43810;50.860;19.226;2023-06-01T07:58:36;98598.69;;;25.16;36.70
58018;BME280;43810;50.860;19.226;2023-06-01T08:01:04;98595.81;;;25.24;38.00
58018;BME280;43810;50.860;19.226;2023-06-01T08:03:30;98606.00;;;25.03;36.14
58018;BME280;43810;50.860;19.226;2023-06-01T08:06:01;98604.28;;;24.93;36.70
58018;BME280;43810;50.860;19.226;2023-06-01T08:08:31;98597.50;;;25.01;37.40
58018;BME280;43810;50.860;19.226;2023-06-01T08:10:57;98593.59;;;25.18;37.81
58018;BME280;43810;50.860;19.226;2023-06-01T08:13:23;98592.75;;;25.05;35.07
58018;BME280;43810;50.860;19.226;2023-06-01T08:15:51;98588.72;;;24.77;36.74
58018;BME280;43810;50.860;19.226;2023-06-01T08:18:19;98590.34;;;24.91;35.58
58018;BME280;43810;50.860;19.226;2023-06-01T08:20:48;98588.69;;;24.97;36.43
58018;BME280;43810;50.860;19.226;2023-06-01T08:23:14;98583.47;;;25.03;37.05
58018;BME280;43810;50.860;19.226;2023-06-01T08:25:45;98586.97;;;25.19;35.47
58018;BME280;43810;50.860;19.226;2023-06-01T08:28:11;98589.13;;;25.28;34.75
58018;BME280;43810;50.860;19.226;2023-06-01T08:30:36;98593.28;;;25.33;36.53
58018;BME280;43810;50.860;19.226;2023-06-01T08:33:02;98583.41;;;25.55;34.18
58018;BME280;43810;50.860;19.226;2023-06-01T08:35:28;98571.81;;;25.67;34.96
58018;BME280;43810;50.860;19.226;2023-06-01T08:37:56;98579.44;;;25.72;32.57
58018;BME280;43810;50.860;19.226;2023-06-01T08:40:21;98572.28;;;25.49;35.57
58018;BME280;43810;50.860;19.226;2023-06-01T08:42:55;98573.72;;;25.22;33.29
58018;BME280;43810;50.860;19.226;2023-06-01T08:45:23;98562.78;;;25.25;32.08
58018;BME280;43810;50.860;19.226;2023-06-01T08:47:52;98568.09;;;25.12;33.79
58018;BME280;43810;50.860;19.226;2023-06-01T08:50:18;98562.63;;;25.32;35.74
58018;BME280;43810;50.860;19.226;2023-06-01T08:52:46;98552.53;;;25.62;35.27
58018;BME280;43810;50.860;19.226;2023-06-01T08:55:13;98558.97;;;25.68;35.47
58018;BME280;43810;50.860;19.226;2023-06-01T08:57:40;98550.19;;;25.76;34.62
58018;BME280;43810;50.860;19.226;2023-06-01T09:00:07;98549.97;;;26.00;33.08
58018;BME280;43810;50.860;19.226;2023-06-01T09:02:34;98546.19;;;26.10;33.07
58018;BME280;43810;50.860;19.226;2023-06-01T09:04:59;98545.56;;;25.89;31.22
58018;BME280;43810;50.860;19.226;2023-06-01T09:07:25;98533.81;;;25.64;34.12
58018;BME280;43810;50.860;19.226;2023-06-01T09:09:51;98531.31;;;25.69;32.76
58018;BME280;43810;50.860;19.226;2023-06-01T09:12:25;98530.03;;;25.74;37.20
58018;BME280;43810;50.860;19.226;2023-06-01T09:15:13;98528.19;;;26.00;32.76
58018;BME280;43810;50.860;19.226;2023-06-01T09:17:43;98523.41;;;25.75;32.19
58018;BME280;43810;50.860;19.226;2023-06-01T09:20:14;98528.22;;;25.83;33.26
58018;BME280;43810;50.860;19.226;2023-06-01T09:22:45;98528.84;;;26.04;34.58
58018;BME280;43810;50.860;19.226;2023-06-01T09:25:12;98528.56;;;26.40;32.67
58018;BME280;43810;50.860;19.226;2023-06-01T09:27:47;98529.91;;;26.48;30.70
58018;BME280;43810;50.860;19.226;2023-06-01T09:30:14;98521.81;;;26.44;32.66
58018;BME280;43810;50.860;19.226;2023-06-01T09:32:41;98515.69;;;26.40;32.64
58018;BME280;43810;50.860;19.226;2023-06-01T09:35:08;98514.19;;;26.39;32.37
58018;BME280;43810;50.860;19.226;2023-06-01T09:37:36;98513.75;;;26.53;31.08
58018;BME280;43810;50.860;19.226;2023-06-01T09:40:02;98507.34;;;26.47;31.83
58018;BME280;43810;50.860;19.226;2023-06-01T09:42:34;98512.88;;;26.31;32.38
58018;BME280;43810;50.860;19.226;2023-06-01T09:45:19;98512.97;;;26.40;32.26
58018;BME280;43810;50.860;19.226;2023-06-01T09:47:50;98497.31;;;26.70;32.19
58018;BME280;43810;50.860;19.226;2023-06-01T09:50:37;98502.63;;;26.86;31.10
58018;BME280;43810;50.860;19.226;2023-06-01T09:53:04;98495.78;;;26.81;30.60
58018;BME280;43810;50.860;19.226;2023-06-01T09:55:31;98505.97;;;27.03;34.75
58018;BME280;43810;50.860;19.226;2023-06-01T09:58:17;98503.81;;;27.45;30.32
58018;BME280;43810;50.860;19.226;2023-06-01T10:00:45;98509.69;;;27.43;29.80
58018;BME280;43810;50.860;19.226;2023-06-01T10:03:13;98490.75;;;27.40;32.15
58018;BME280;43810;50.860;19.226;2023-06-01T10:05:39;98495.00;;;27.62;30.95
58018;BME280;43810;50.860;19.226;2023-06-01T10:08:06;98489.09;;;28.08;30.04
58018;BME280;43810;50.860;19.226;2023-06-01T10:10:33;98488.25;;;28.20;28.35
58018;BME280;43810;50.860;19.226;2023-06-01T10:12:59;98480.75;;;27.89;32.09
58018;BME280;43810;50.860;19.226;2023-06-01T10:15:25;98485.91;;;27.87;30.85
58018;BME280;43810;50.860;19.226;2023-06-01T10:17:51;98491.91;;;27.95;31.92
58018;BME280;43810;50.860;19.226;2023-06-01T10:20:17;98487.63;;;27.94;30.90
58018;BME280;43810;50.860;19.226;2023-06-01T10:22:44;98480.69;;;27.80;29.76
58018;BME280;43810;50.860;19.226;2023-06-01T10:25:12;98477.03;;;27.30;32.68
58018;BME280;43810;50.860;19.226;2023-06-01T10:28:02;98477.97;;;27.37;30.86
58018;BME280;43810;50.860;19.226;2023-06-01T10:30:28;98468.72;;;27.21;32.06
58018;BME280;43810;50.860;19.226;2023-06-01T10:32:54;98476.41;;;27.14;31.66
58018;BME280;43810;50.860;19.226;2023-06-01T10:40:39;98463.53;;;27.49;32.62
58018;BME280;43810;50.860;19.226;2023-06-01T10:43:07;98460.97;;;27.54;32.35
58018;BME280;43810;50.860;19.226;2023-06-01T10:48:01;98446.25;;;27.74;31.58
58018;BME280;43810;50.860;19.226;2023-06-01T10:50:27;98444.34;;;27.61;31.82
58018;BME280;43810;50.860;19.226;2023-06-01T10:52:54;98441.19;;;27.63;31.51
58018;BME280;43810;50.860;19.226;2023-06-01T10:55:25;98448.91;;;27.43;30.20
58018;BME280;43810;50.860;19.226;2023-06-01T10:57:52;98444.47;;;27.36;32.85
58018;BME280;43810;50.860;19.226;2023-06-01T11:00:40;98442.56;;;27.46;32.51
58018;BME280;43810;50.860;19.226;2023-06-01T11:03:08;98435.53;;;27.57;31.50
58018;BME280;43810;50.860;19.226;2023-06-01T11:13:20;98440.22;;;28.50;29.43
58018;BME280;43810;50.860;19.226;2023-06-01T11:18:51;98431.94;;;28.62;29.51
58018;BME280;43810;50.860;19.226;2023-06-01T11:21:36;98423.34;;;28.42;30.17
58018;BME280;43810;50.860;19.226;2023-06-01T11:24:08;98421.59;;;28.57;29.91
58018;BME280;43810;50.860;19.226;2023-06-01T11:26:46;98420.00;;;28.38;32.82
58018;BME280;43810;50.860;19.226;2023-06-01T11:29:22;98417.56;;;28.31;32.70
58018;BME280;43810;50.860;19.226;2023-06-01T11:31:52;98408.78;;;28.45;31.34
58018;BME280;43810;50.860;19.226;2023-06-01T11:34:34;98400.06;;;28.68;30.06
58018;BME280;43810;50.860;19.226;2023-06-01T11:37:03;98401.59;;;28.79;28.68
58018;BME280;43810;50.860;19.226;2023-06-01T11:39:29;98404.63;;;28.81;29.72
58018;BME280;43810;50.860;19.226;2023-06-01T11:42:07;98392.47;;;28.91;28.17
58018;BME280;43810;50.860;19.226;2023-06-01T11:44:36;98397.75;;;28.58;29.91
58018;BME280;43810;50.860;19.226;2023-06-01T11:47:02;98392.00;;;28.56;29.45
58018;BME280;43810;50.860;19.226;2023-06-01T11:49:29;98394.44;;;28.72;29.25
58018;BME280;43810;50.860;19.226;2023-06-01T11:51:55;98385.19;;;28.79;28.90
58018;BME280;43810;50.860;19.226;2023-06-01T11:54:27;98383.44;;;28.54;27.32
58018;BME280;43810;50.860;19.226;2023-06-01T11:56:55;98379.41;;;28.18;29.93
58018;BME280;43810;50.860;19.226;2023-06-01T11:59:21;98380.81;;;28.23;29.84
58018;BME280;43810;50.860;19.226;2023-06-01T12:01:49;98375.16;;;28.57;29.25
58018;BME280;43810;50.860;19.226;2023-06-01T12:04:21;98389.13;;;28.96;30.25
58018;BME280;43810;50.860;19.226;2023-06-01T12:06:49;98382.59;;;29.11;29.98
58018;BME280;43810;50.860;19.226;2023-06-01T12:09:15;98375.69;;;29.53;28.52
58018;BME280;43810;50.860;19.226;2023-06-01T12:11:43;98369.88;;;29.69;28.04
58018;BME280;43810;50.860;19.226;2023-06-01T12:14:11;98381.75;;;30.08;29.93
58018;BME280;43810;50.860;19.226;2023-06-01T12:16:53;98360.72;;;30.47;26.84
58018;BME280;43810;50.860;19.226;2023-06-01T12:19:20;98359.47;;;30.96;30.01
58018;BME280;43810;50.860;19.226;2023-06-01T12:21:48;98368.47;;;30.96;25.39
58018;BME280;43810;50.860;19.226;2023-06-01T12:24:15;98364.13;;;30.80;25.96
58018;BME280;43810;50.860;19.226;2023-06-01T12:26:40;98359.56;;;30.77;25.45
58018;BME280;43810;50.860;19.226;2023-06-01T12:29:06;98360.94;;;30.82;27.75
58018;BME280;43810;50.860;19.226;2023-06-01T12:31:32;98362.81;;;31.14;26.57
58018;BME280;43810;50.860;19.226;2023-06-01T12:33:58;98353.06;;;30.99;26.70
58018;BME280;43810;50.860;19.226;2023-06-01T12:36:42;98345.63;;;30.51;26.70
58018;BME280;43810;50.860;19.226;2023-06-01T12:39:08;98352.16;;;30.21;29.65
58018;BME280;43810;50.860;19.226;2023-06-01T12:41:34;98358.56;;;29.94;29.05
58018;BME280;43810;50.860;19.226;2023-06-01T12:43:59;98351.97;;;30.01;29.13
58018;BME280;43810;50.860;19.226;2023-06-01T12:46:29;98345.22;;;30.44;26.75
58018;BME280;43810;50.860;19.226;2023-06-01T12:49:15;98341.13;;;30.78;25.56
58018;BME280;43810;50.860;19.226;2023-06-01T12:51:45;98341.06;;;30.48;28.53
58018;BME280;43810;50.860;19.226;2023-06-01T12:54:11;98330.97;;;30.54;26.97
58018;BME280;43810;50.860;19.226;2023-06-01T12:56:37;98334.94;;;30.92;25.61
58018;BME280;43810;50.860;19.226;2023-06-01T12:59:03;98335.31;;;30.85;26.92
58018;BME280;43810;50.860;19.226;2023-06-01T13:01:29;98339.19;;;30.93;26.93
58018;BME280;43810;50.860;19.226;2023-06-01T13:03:55;98334.72;;;31.19;25.71
58018;BME280;43810;50.860;19.226;2023-06-01T13:06:22;98326.28;;;31.08;24.18
58018;BME280;43810;50.860;19.226;2023-06-01T13:08:48;98329.91;;;30.76;26.36
58018;BME280;43810;50.860;19.226;2023-06-01T13:11:14;98327.97;;;31.06;24.88
58018;BME280;43810;50.860;19.226;2023-06-01T13:13:40;98315.97;;;31.18;26.04
58018;BME280;43810;50.860;19.226;2023-06-01T13:16:06;98327.13;;;31.44;26.04
58018;BME280;43810;50.860;19.226;2023-06-01T13:18:33;98326.00;;;31.21;26.07
58018;BME280;43810;50.860;19.226;2023-06-01T13:20:58;98327.63;;;31.57;25.20